createdAt,value
2019-03-25T00:02:06.773Z,58.83
2019-03-25T00:04:38.259Z,59.04
2019-03-25T00:07:09.642Z,59.16
2019-03-25T00:09:41.042Z,58.87
2019-03-25T00:12:12.988Z,59.17
2019-03-25T00:14:44.427Z,58.88
2019-03-25T00:17:15.805Z,59.55
2019-03-25T00:19:49.043Z,59.55
2019-03-25T00:22:20.428Z,59.35
2019-03-25T00:24:52.064Z,59.34
2019-03-25T00:27:23.429Z,59.49
2019-03-25T00:29:55.012Z,59.66
2019-03-25T00:32:26.462Z,59.46
2019-03-25T00:34:57.846Z,60.04
2019-03-25T00:37:29.326Z,59.78
2019-03-25T00:40:00.976Z,60.06
2019-03-25T00:42:32.727Z,60.14
2019-03-25T00:45:04.314Z,60.03
2019-03-25T00:47:35.908Z,60.17
2019-03-25T00:50:08.592Z,60.10
2019-03-25T00:52:40.265Z,59.82
2019-03-25T00:55:11.910Z,59.94
2019-03-25T00:57:44.325Z,60.21
2019-03-25T01:00:15.916Z,60.44
2019-03-25T01:02:47.303Z,60.55
2019-03-25T01:05:18.807Z,60.43
2019-03-25T01:07:50.241Z,60.63
2019-03-25T01:10:22.018Z,61.14
2019-03-25T01:12:53.767Z,60.90
2019-03-25T01:15:25.167Z,61.05
2019-03-25T01:17:56.598Z,61.63
2019-03-25T01:20:28.657Z,61.90
2019-03-25T01:23:00.059Z,61.69
2019-03-25T01:25:32.385Z,61.93
2019-03-25T01:28:03.828Z,62.06
2019-03-25T01:30:35.829Z,62.12
2019-03-25T01:33:07.187Z,62.03
2019-03-25T01:35:39.230Z,62.07
2019-03-25T01:38:10.813Z,61.85
2019-03-25T01:40:42.400Z,61.38
2019-03-25T01:43:13.879Z,61.37
2019-03-25T01:45:45.962Z,61.20
2019-03-25T01:48:17.936Z,60.84
2019-03-25T01:50:49.676Z,60.47
2019-03-25T01:53:21.130Z,60.14
2019-03-25T01:55:52.903Z,59.77
2019-03-25T01:58:24.263Z,59.38
2019-03-25T02:00:55.685Z,59.09
2019-03-25T02:03:27.234Z,58.77
2019-03-25T02:05:59.133Z,58.86
2019-03-25T02:08:30.931Z,58.56
2019-03-25T02:11:02.616Z,58.83
2019-03-25T02:13:34.016Z,59.09
2019-03-25T02:16:06.036Z,59.25
2019-03-25T02:18:37.481Z,59.24
2019-03-25T02:21:10.239Z,58.94
2019-03-25T02:23:41.897Z,58.83
2019-03-25T02:26:13.386Z,58.37
2019-03-25T02:28:45.130Z,58.74
2019-03-25T02:31:16.559Z,58.28
2019-03-25T02:33:48.551Z,58.20
2019-03-25T02:36:20.644Z,57.97
2019-03-25T02:38:52.105Z,57.59
2019-03-25T02:41:23.858Z,57.83
2019-03-25T02:43:55.515Z,57.83
2019-03-25T02:46:26.911Z,57.45
2019-03-25T02:48:58.626Z,57.60
2019-03-25T02:51:30.661Z,57.42
2019-03-25T02:54:02.284Z,57.48
2019-03-25T02:56:34.150Z,57.57
2019-03-25T02:59:06.166Z,57.59
2019-03-25T03:01:37.562Z,58.17
2019-03-25T03:04:09.240Z,58.17
2019-03-25T03:06:41.211Z,58.20
2019-03-25T03:09:12.849Z,57.88
2019-03-25T03:11:44.448Z,58.29
2019-03-25T03:14:15.821Z,58.20
2019-03-25T03:16:47.173Z,59.11
2019-03-25T03:19:18.853Z,59.93
2019-03-25T03:21:51.186Z,60.52
2019-03-25T03:24:22.938Z,62.67
2019-03-25T03:26:54.615Z,63.19
2019-03-25T03:29:26.319Z,64.47
2019-03-25T03:31:58.081Z,66.36
2019-03-25T03:34:29.767Z,67.56
2019-03-25T03:37:01.782Z,67.63
2019-03-25T03:39:33.251Z,67.44
2019-03-25T03:42:05.776Z,67.98
2019-03-25T03:44:37.426Z,68.07
2019-03-25T03:47:08.779Z,68.12
2019-03-25T03:49:40.186Z,68.35
2019-03-25T03:52:11.597Z,68.41
2019-03-25T03:54:43.194Z,68.52
2019-03-25T03:57:16.927Z,68.91
2019-03-25T03:59:48.617Z,69.20
2019-03-25T04:02:20.654Z,68.68
2019-03-25T04:04:52.039Z,68.71
2019-03-25T04:07:23.554Z,68.53
2019-03-25T04:09:54.930Z,68.29
2019-03-25T04:12:26.330Z,68.86
2019-03-25T04:14:58.892Z,69.41
2019-03-25T04:17:30.275Z,69.54
2019-03-25T04:20:01.953Z,70.17
2019-03-25T04:22:34.033Z,70.29
2019-03-25T04:25:05.882Z,70.43
2019-03-25T04:27:37.534Z,70.40
2019-03-25T04:30:09.760Z,70.84
2019-03-25T04:32:41.224Z,70.80
2019-03-25T04:35:12.822Z,71.14
2019-03-25T04:37:44.380Z,71.25
2019-03-25T04:40:15.989Z,71.30
2019-03-25T04:42:47.763Z,71.30
2019-03-25T04:45:19.179Z,71.31
2019-03-25T04:47:50.978Z,71.56
2019-03-25T04:50:22.376Z,71.41
2019-03-25T04:52:54.054Z,71.06
2019-03-25T04:55:25.730Z,71.03
2019-03-25T04:57:57.597Z,71.16
2019-03-25T05:00:36.599Z,71.38
2019-03-25T05:03:08.615Z,71.55
2019-03-25T05:05:40.082Z,71.85
2019-03-25T05:08:11.730Z,72.42
2019-03-25T05:10:43.172Z,72.71
2019-03-25T05:13:16.170Z,73.01
2019-03-25T05:15:47.972Z,73.25
2019-03-25T05:18:19.384Z,73.50
2019-03-25T05:20:51.069Z,73.77
2019-03-25T05:23:22.799Z,73.94
2019-03-25T05:25:54.433Z,74.17
2019-03-25T05:28:26.379Z,74.10
2019-03-25T05:30:57.939Z,74.07
2019-03-25T05:33:29.403Z,74.05
2019-03-25T05:36:01.017Z,74.02
2019-03-25T05:38:33.519Z,74.03
2019-03-25T05:41:05.296Z,73.97
2019-03-25T05:43:36.952Z,73.69
2019-03-25T05:46:09.995Z,73.74
2019-03-25T05:48:41.892Z,73.55
2019-03-25T05:51:15.993Z,73.50
2019-03-25T05:53:48.102Z,73.21
2019-03-25T05:56:20.033Z,73.04
2019-03-25T05:58:51.855Z,72.74
2019-03-25T06:01:23.879Z,72.73
2019-03-25T06:03:55.338Z,72.73
2019-03-25T06:06:26.782Z,72.62
2019-03-25T06:08:59.070Z,72.64
2019-03-25T06:11:30.680Z,72.56
2019-03-25T06:14:02.627Z,72.69
2019-03-25T06:16:34.419Z,72.71
2019-03-25T06:19:06.799Z,72.53
2019-03-25T06:21:38.188Z,72.42
2019-03-25T06:24:09.573Z,72.46
2019-03-25T06:26:41.500Z,72.38
2019-03-25T06:29:13.223Z,71.83
2019-03-25T06:31:44.833Z,71.33
2019-03-25T06:34:16.978Z,71.16
2019-03-25T06:36:48.677Z,71.09
2019-03-25T06:39:20.227Z,70.68
2019-03-25T06:41:51.820Z,70.26
2019-03-25T06:44:23.861Z,70.19
2019-03-25T06:46:55.210Z,69.96
2019-03-25T06:49:26.607Z,69.79
2019-03-25T06:51:59.539Z,69.50
2019-03-25T06:54:31.810Z,69.80
2019-03-25T06:57:03.191Z,69.95
2019-03-25T06:59:34.865Z,69.83
2019-03-25T07:02:06.668Z,70.11
2019-03-25T07:04:38.071Z,70.06
2019-03-25T07:07:10.106Z,69.97
2019-03-25T07:09:41.479Z,69.40
2019-03-25T07:12:12.935Z,69.08
2019-03-25T07:14:44.665Z,69.04
2019-03-25T07:17:16.347Z,69.21
2019-03-25T07:19:47.987Z,68.61
2019-03-25T07:22:19.690Z,68.16
2019-03-25T07:24:51.317Z,66.96
2019-03-25T07:27:23.456Z,66.64
2019-03-25T07:29:55.163Z,65.90
2019-03-25T07:32:26.754Z,65.91
2019-03-25T07:34:59.088Z,66.22
2019-03-25T07:37:30.453Z,66.46
2019-03-25T07:40:02.296Z,66.31
2019-03-25T07:42:33.829Z,66.75
2019-03-25T07:45:05.461Z,66.83
2019-03-25T07:47:37.154Z,66.85
2019-03-25T07:50:09.147Z,65.71
2019-03-25T07:52:40.815Z,64.48
2019-03-25T07:55:13.027Z,64.60
2019-03-25T07:57:48.585Z,62.84
2019-03-25T08:00:18.146Z,63.14
2019-03-25T08:02:49.871Z,63.36
2019-03-25T08:05:21.361Z,63.33
2019-03-25T08:07:53.530Z,63.09
2019-03-25T08:10:35.555Z,62.91
2019-03-25T08:13:07.425Z,62.07
2019-03-25T08:15:39.195Z,61.80
2019-03-25T08:18:11.229Z,62.02
2019-03-25T08:20:43.050Z,62.43
2019-03-25T08:23:14.676Z,62.39
2019-03-25T08:25:46.706Z,62.60
2019-03-25T08:28:18.114Z,63.38
2019-03-25T08:30:49.631Z,63.66
2019-03-25T08:33:21.371Z,63.77
2019-03-25T08:35:52.760Z,64.92
2019-03-25T08:38:25.768Z,64.80
2019-03-25T08:40:57.308Z,65.41
2019-03-25T08:43:28.940Z,65.90
2019-03-25T08:46:00.820Z,66.49
2019-03-25T08:48:32.205Z,66.57
2019-03-25T08:51:04.138Z,67.24
2019-03-25T08:53:35.825Z,68.58
2019-03-25T08:56:07.441Z,70.14
2019-03-25T08:58:39.543Z,71.04
2019-03-25T09:01:10.988Z,71.24
2019-03-25T09:03:42.616Z,71.71
2019-03-25T09:06:14.205Z,71.88
2019-03-25T09:08:46.257Z,72.31
2019-03-25T09:11:17.607Z,72.61
2019-03-25T09:13:49.349Z,72.68
2019-03-25T09:16:21.122Z,72.69
2019-03-25T09:18:52.478Z,72.75
2019-03-25T09:21:24.313Z,72.77
2019-03-25T09:23:56.010Z,72.48
2019-03-25T09:26:27.679Z,72.57
2019-03-25T09:28:59.577Z,72.60
2019-03-25T09:31:36.825Z,72.31
2019-03-25T09:34:04.367Z,72.49
2019-03-25T09:36:36.067Z,71.97
2019-03-25T09:39:07.897Z,71.92
2019-03-25T09:41:40.108Z,71.63
2019-03-25T09:44:11.943Z,71.09
2019-03-25T09:46:43.459Z,71.23
2019-03-25T09:49:15.078Z,71.48
2019-03-25T09:51:46.555Z,70.75
2019-03-25T09:54:18.177Z,71.07
2019-03-25T09:56:50.141Z,70.75
2019-03-25T09:59:21.590Z,71.48
2019-03-25T10:01:53.247Z,72.22
2019-03-25T10:04:24.619Z,72.40
2019-03-25T10:06:56.291Z,72.25
2019-03-25T10:09:27.900Z,72.76
2019-03-25T10:11:59.566Z,73.53
2019-03-25T10:14:30.945Z,73.52
2019-03-25T10:17:03.554Z,73.57
2019-03-25T10:19:35.038Z,73.07
2019-03-25T10:22:06.731Z,72.26
2019-03-25T10:24:38.116Z,70.95
2019-03-25T10:27:09.473Z,71.65
2019-03-25T10:29:41.459Z,71.06
2019-03-25T10:32:12.902Z,71.02
2019-03-25T10:34:44.371Z,70.99
2019-03-25T10:37:16.272Z,71.11
2019-03-25T10:39:47.705Z,70.33
2019-03-25T10:42:19.299Z,69.91
2019-03-25T10:44:50.812Z,68.35
2019-03-25T10:47:22.184Z,67.55
2019-03-25T10:49:53.917Z,66.84
2019-03-25T10:52:25.293Z,66.84
2019-03-25T10:57:28.049Z,66.00
2019-03-25T10:59:59.746Z,65.96
2019-03-25T11:02:31.115Z,66.54
2019-03-25T11:05:02.827Z,66.01
2019-03-25T11:07:34.363Z,65.98
2019-03-25T11:10:06.662Z,65.32
2019-03-25T11:12:39.676Z,65.41
2019-03-25T11:15:13.035Z,64.89
2019-03-25T11:17:44.832Z,64.84
2019-03-25T11:20:16.508Z,64.79
2019-03-25T11:22:48.178Z,66.08
2019-03-25T11:25:19.670Z,65.91
2019-03-25T11:27:54.500Z,66.63
2019-03-25T11:30:51.548Z,67.38
2019-03-25T11:33:23.774Z,68.22
2019-03-25T11:35:57.031Z,68.59
2019-03-25T11:38:29.862Z,69.56
2019-03-25T11:41:01.348Z,69.56
2019-03-25T11:43:33.186Z,69.78
2019-03-25T11:46:04.986Z,70.33
2019-03-25T11:48:36.469Z,71.09
2019-03-25T11:51:08.280Z,71.08
2019-03-25T11:53:39.932Z,71.11
2019-03-25T11:56:11.409Z,70.76
2019-03-25T11:58:43.113Z,70.23
2019-03-25T12:01:14.886Z,70.40
2019-03-25T12:03:46.688Z,70.11
2019-03-25T12:06:18.163Z,69.29
2019-03-25T12:08:49.578Z,69.26
2019-03-25T12:11:23.669Z,69.51
2019-03-25T12:13:55.133Z,69.93
2019-03-25T12:16:27.528Z,69.99
2019-03-25T12:18:59.167Z,70.06
2019-03-25T12:21:30.526Z,69.74
2019-03-25T12:24:02.183Z,69.44
2019-03-25T12:26:33.674Z,68.89
2019-03-25T12:29:05.226Z,69.16
2019-03-25T12:31:36.633Z,67.93
2019-03-25T12:34:08.266Z,65.73
2019-03-25T12:36:39.620Z,66.12
2019-03-25T12:39:10.982Z,66.16
2019-03-25T12:41:43.240Z,66.30
2019-03-25T12:44:14.818Z,66.43
2019-03-25T12:46:47.550Z,66.14
2019-03-25T12:49:19.188Z,63.71
2019-03-25T12:51:50.785Z,62.90
2019-03-25T12:54:22.724Z,63.19
2019-03-25T12:56:54.111Z,61.29
2019-03-25T12:59:25.463Z,61.51
2019-03-25T13:01:56.826Z,60.81
2019-03-25T13:04:28.344Z,58.04
2019-03-25T13:06:59.730Z,58.04
2019-03-25T13:09:31.323Z,57.23
2019-03-25T13:12:03.514Z,55.91
2019-03-25T13:14:35.261Z,57.27
2019-03-25T13:17:07.327Z,57.54
2019-03-25T13:19:38.923Z,57.46
2019-03-25T13:22:10.565Z,57.75
2019-03-25T13:24:42.487Z,58.31
2019-03-25T13:27:14.297Z,55.97
2019-03-25T13:29:52.548Z,55.27
2019-03-25T13:32:19.577Z,55.14
2019-03-25T13:34:50.965Z,53.42
2019-03-25T13:37:22.832Z,53.01
2019-03-25T13:39:54.559Z,52.60
2019-03-25T13:42:26.249Z,52.97
2019-03-25T13:44:58.197Z,52.67
2019-03-25T13:47:29.588Z,52.82
2019-03-25T13:50:01.105Z,52.01
2019-03-25T13:52:32.592Z,52.85
2019-03-25T13:55:04.280Z,53.20
2019-03-25T13:57:35.734Z,53.39
2019-03-25T14:00:08.494Z,53.72
2019-03-25T14:02:39.990Z,53.84
2019-03-25T14:05:11.981Z,53.79
2019-03-25T14:07:43.369Z,54.65
2019-03-25T14:10:15.542Z,54.98
2019-03-25T14:12:47.806Z,56.58
2019-03-25T14:15:19.443Z,57.17
2019-03-25T14:17:51.405Z,58.63
2019-03-25T14:20:23.739Z,60.35
2019-03-25T14:22:55.736Z,60.68
2019-03-25T14:25:27.073Z,60.23
2019-03-25T14:27:59.284Z,59.77
2019-03-25T14:30:30.610Z,59.16
2019-03-25T14:33:02.850Z,57.53
2019-03-25T14:35:34.584Z,57.25
2019-03-25T14:38:06.164Z,57.41
2019-03-25T14:40:37.793Z,57.75
2019-03-25T14:43:09.208Z,58.06
2019-03-25T14:45:40.546Z,58.21
2019-03-25T14:48:11.982Z,58.43
2019-03-25T14:50:43.720Z,59.26
2019-03-25T14:53:15.733Z,59.27
2019-03-25T14:55:47.420Z,59.20
2019-03-25T14:58:18.910Z,59.54
2019-03-25T15:00:50.602Z,59.32
2019-03-25T15:03:22.316Z,59.07
2019-03-25T15:05:53.894Z,59.01
2019-03-25T15:08:25.646Z,58.08
2019-03-25T15:10:57.119Z,57.89
2019-03-25T15:13:29.066Z,58.28
2019-03-25T15:16:00.421Z,58.92
2019-03-25T15:18:32.037Z,59.63
2019-03-25T15:21:03.537Z,59.63
2019-03-25T15:23:34.978Z,60.10
2019-03-25T15:26:07.988Z,61.04
2019-03-25T15:28:39.574Z,60.79
2019-03-25T15:31:11.721Z,60.64
2019-03-25T15:33:43.366Z,61.08
2019-03-25T15:36:15.461Z,61.06
2019-03-25T15:38:46.896Z,60.82
2019-03-25T15:41:18.703Z,60.29
2019-03-25T15:43:50.434Z,59.47
2019-03-25T15:46:21.858Z,59.92
2019-03-25T15:48:53.787Z,61.01
2019-03-25T15:51:25.331Z,61.31
2019-03-25T15:53:56.723Z,61.39
2019-03-25T15:56:28.339Z,61.67
2019-03-25T15:58:59.748Z,61.71
2019-03-25T16:01:32.164Z,61.93
2019-03-25T16:04:03.547Z,61.60
2019-03-25T16:06:35.236Z,61.74
2019-03-25T16:09:08.214Z,61.33
2019-03-25T16:11:39.641Z,61.45
2019-03-25T16:14:11.733Z,61.33
2019-03-25T16:16:43.140Z,61.37
2019-03-25T16:19:14.685Z,61.54
2019-03-25T16:21:47.278Z,61.46
2019-03-25T16:24:20.282Z,61.33
2019-03-25T16:26:51.937Z,61.54
2019-03-25T16:29:23.431Z,61.62
2019-03-25T16:31:54.809Z,61.84
2019-03-25T16:34:26.461Z,62.17
2019-03-25T16:36:58.026Z,62.41
2019-03-25T16:39:29.441Z,62.47
2019-03-25T16:42:00.845Z,62.77
2019-03-25T16:44:32.706Z,63.24
2019-03-25T16:47:04.211Z,63.63
2019-03-25T16:49:36.033Z,63.95
2019-03-25T16:52:07.386Z,64.28
2019-03-25T16:54:38.817Z,64.35
2019-03-25T16:57:10.324Z,64.47
2019-03-25T16:59:41.780Z,64.56
2019-03-25T17:02:13.300Z,64.77
2019-03-25T17:04:45.143Z,64.85
2019-03-25T17:07:16.599Z,65.11
2019-03-25T17:09:48.873Z,65.12
2019-03-25T17:12:20.614Z,65.27
2019-03-25T17:14:52.367Z,65.44
2019-03-25T17:17:24.108Z,65.30
2019-03-25T17:19:55.782Z,65.48
2019-03-25T17:22:27.262Z,65.74
2019-03-25T17:24:59.059Z,66.06
2019-03-25T17:27:30.544Z,66.46
2019-03-25T17:30:02.511Z,66.72
2019-03-25T17:32:34.917Z,67.02
2019-03-25T17:35:06.365Z,67.43
2019-03-25T17:37:38.018Z,67.71
2019-03-25T17:40:09.946Z,67.95
2019-03-25T17:42:41.867Z,67.95
2019-03-25T17:45:13.613Z,67.97
2019-03-25T17:47:47.400Z,68.14
2019-03-25T17:50:19.743Z,68.40
2019-03-25T17:52:51.367Z,68.41
2019-03-25T17:55:23.006Z,68.32
2019-03-25T17:57:54.376Z,68.34
2019-03-25T18:01:14.264Z,68.21
2019-03-25T18:03:45.966Z,67.93
2019-03-25T18:06:18.665Z,67.79
2019-03-25T18:08:50.317Z,67.73
2019-03-25T18:11:22.995Z,67.69
2019-03-25T18:13:54.940Z,67.59
2019-03-25T18:16:26.320Z,67.27
2019-03-25T18:18:58.434Z,67.41
2019-03-25T18:21:30.148Z,67.21
2019-03-25T18:24:01.714Z,67.22
2019-03-25T18:26:33.059Z,67.41
2019-03-25T18:29:04.666Z,67.29
2019-03-25T18:31:43.406Z,67.23
2019-03-25T18:34:10.041Z,67.37
2019-03-25T18:36:41.471Z,67.74
2019-03-25T18:39:13.896Z,67.72
2019-03-25T18:41:45.314Z,67.86
2019-03-25T18:44:16.762Z,68.05
2019-03-25T18:46:48.559Z,67.91
2019-03-25T18:49:20.059Z,68.06
2019-03-25T18:51:51.958Z,68.18
2019-03-25T18:54:27.464Z,68.41
2019-03-25T18:56:59.177Z,68.37
2019-03-25T18:59:30.866Z,68.38
2019-03-25T19:02:02.319Z,68.46
2019-03-25T19:04:34.049Z,68.65
2019-03-25T19:07:05.977Z,68.59
2019-03-25T19:09:37.443Z,68.77
2019-03-25T19:12:08.957Z,68.95
2019-03-25T19:14:40.696Z,69.04
2019-03-25T19:17:12.321Z,69.10
2019-03-25T19:19:44.365Z,68.88
2019-03-25T19:22:15.742Z,68.96
2019-03-25T19:24:47.518Z,68.84
2019-03-25T19:27:19.042Z,68.80
2019-03-25T19:29:50.757Z,68.76
2019-03-25T19:32:25.694Z,68.54
2019-03-25T19:35:04.945Z,68.81
2019-03-25T19:37:36.372Z,68.80
2019-03-25T19:40:10.495Z,69.00
2019-03-25T19:42:41.848Z,69.01
2019-03-25T19:45:13.501Z,68.97
2019-03-25T19:47:45.012Z,69.25
2019-03-25T19:50:16.941Z,69.45
2019-03-25T19:52:48.432Z,69.48
2019-03-25T19:55:20.180Z,69.57
2019-03-25T19:57:52.923Z,69.66
2019-03-25T20:00:35.654Z,69.73
2019-03-25T20:03:07.323Z,69.69
2019-03-25T20:05:38.921Z,69.92
2019-03-25T20:08:10.971Z,70.03
2019-03-25T20:10:42.366Z,70.00
2019-03-25T20:13:14.317Z,70.17
2019-03-25T20:15:46.898Z,70.21
2019-03-25T20:18:19.478Z,70.21
2019-03-25T20:20:51.678Z,70.27
2019-03-25T20:23:23.291Z,70.25
2019-03-25T20:25:55.384Z,70.28
2019-03-25T20:28:27.125Z,70.47
2019-03-25T20:30:58.616Z,70.41
2019-03-25T20:33:30.116Z,70.31
2019-03-25T20:36:02.408Z,70.55
2019-03-25T20:38:33.828Z,70.57
2019-03-25T20:41:05.496Z,70.38
2019-03-25T20:43:36.965Z,70.45
2019-03-25T20:46:08.441Z,70.49
2019-03-25T20:48:39.819Z,70.39
2019-03-25T20:51:11.294Z,70.40
2019-03-25T20:53:42.779Z,70.43
2019-03-25T20:56:14.218Z,70.35
2019-03-25T20:58:47.824Z,70.29
2019-03-25T21:01:19.377Z,70.15
2019-03-25T21:03:51.299Z,70.06
2019-03-25T21:06:23.181Z,70.08
2019-03-25T21:08:54.625Z,70.10
2019-03-25T21:11:26.054Z,69.98
2019-03-25T21:13:57.544Z,69.96
2019-03-25T21:16:29.010Z,69.90
2019-03-25T21:19:00.447Z,69.65
2019-03-25T21:21:32.364Z,69.49
2019-03-25T21:24:03.977Z,69.31
2019-03-25T21:26:41.645Z,69.21
2019-03-25T21:29:13.396Z,68.91
2019-03-25T21:31:44.879Z,68.61
2019-03-25T21:34:16.352Z,68.51
2019-03-25T21:36:52.055Z,68.42
2019-03-25T21:39:23.616Z,68.35
2019-03-25T21:41:55.076Z,68.42
2019-03-25T21:44:26.469Z,68.43
2019-03-25T21:46:58.799Z,68.28
2019-03-25T21:49:30.989Z,67.98
2019-03-25T21:52:02.977Z,68.08
2019-03-25T21:54:34.399Z,67.95
2019-03-25T21:57:05.970Z,68.01
2019-03-25T21:59:40.341Z,68.11
2019-03-25T22:02:11.908Z,67.89
2019-03-25T22:04:43.447Z,67.85
2019-03-25T22:07:14.910Z,68.09
2019-03-25T22:09:46.923Z,68.41
2019-03-25T22:12:18.556Z,68.50
2019-03-25T22:14:50.370Z,68.68
2019-03-25T22:17:21.935Z,68.83
2019-03-25T22:19:53.932Z,69.41
2019-03-25T22:22:25.582Z,69.82
2019-03-25T22:24:56.979Z,70.25
2019-03-25T22:27:28.830Z,70.27
2019-03-25T22:30:00.342Z,70.55
2019-03-25T22:32:31.747Z,70.54
2019-03-25T22:35:03.169Z,70.65
2019-03-25T22:37:36.154Z,71.25
2019-03-25T22:40:08.013Z,71.38
2019-03-25T22:42:39.665Z,71.76
2019-03-25T22:45:11.591Z,72.07
2019-03-25T22:47:44.569Z,72.07
2019-03-25T22:50:28.912Z,72.23
2019-03-25T22:53:00.557Z,72.39
2019-03-25T22:55:33.219Z,72.73
2019-03-25T22:58:04.981Z,73.03
2019-03-25T23:00:46.505Z,73.36
2019-03-25T23:03:18.118Z,73.44
2019-03-25T23:05:49.550Z,73.39
2019-03-25T23:08:20.898Z,73.47
2019-03-25T23:10:52.592Z,73.56
2019-03-25T23:13:25.831Z,73.70
2019-03-25T23:15:57.425Z,73.72
2019-03-25T23:18:29.776Z,73.90
2019-03-25T23:21:01.496Z,74.07
2019-03-25T23:23:33.313Z,74.12
2019-03-25T23:26:04.820Z,74.16
2019-03-25T23:28:36.196Z,74.43
2019-03-25T23:31:07.589Z,74.50
2019-03-25T23:33:51.427Z,74.70
2019-03-25T23:36:12.980Z,74.65
2019-03-25T23:38:44.656Z,74.83
2019-03-25T23:41:15.994Z,74.79
2019-03-25T23:43:47.843Z,74.77
2019-03-25T23:46:19.189Z,74.68
2019-03-25T23:48:51.118Z,74.75
2019-03-25T23:51:22.656Z,74.85
2019-03-25T23:54:11.352Z,74.88
2019-03-25T23:56:43.720Z,74.84
2019-03-25T23:59:15.437Z,74.89
